Time;durP1;ratioP1;P1;durP2;ratioP2;P2;SDS_P1;SDS_P2;PMS_P1;PMS_P2;Temp;Humidity;BMP_temperature;BMP_pressure;BME280_temperature;BME280_humidity;BME280_pressure;Samples;Min_cycle;Max_cycle;Signal;HPM_P1;HPM_P2
2024/01/15 00:02:03;;;;;;;8.70;6.50;;;;;;;0.84;91.59;98194.52;108678;1292;22263;-88
2024/01/15 00:04:35;;;;;;;11.10;7.10;;;;;;;0.87;91.88;98190.35;109433;1287;22176;-87
2024/01/15 00:07:05;;;;;;;8.80;6.80;;;;;;;0.87;91.46;98187.06;108675;1298;22350;-88
2024/01/15 00:09:35;;;;;;;7.90;6.90;;;;;;;0.89;91.51;98180.80;108494;1298;22168;-87
2024/01/15 00:12:02;;;;;;;8.90;7.00;;;;;;;0.90;91.48;98173.36;108678;1293;22446;-87
2024/01/15 00:14:30;;;;;;;11.00;7.80;;;;;;;0.90;91.11;98165.54;108599;1293;22363;-88
2024/01/15 00:16:59;;;;;;;9.30;7.00;;;;;;;0.89;91.07;98158.27;109082;1294;22178;-85
2024/01/15 00:19:26;;;;;;;11.60;8.30;;;;;;;0.86;91.04;98154.47;108860;1290;23108;-87
2024/01/15 00:22:00;;;;;;;9.40;7.70;;;;;;;0.86;91.42;98153.09;109154;1286;22412;-86
2024/01/15 00:24:28;;;;;;;9.20;7.50;;;;;;;0.85;91.24;98150.33;109248;1287;22130;-88
2024/01/15 00:26:56;;;;;;;8.40;7.40;;;;;;;0.86;91.31;98147.03;109659;1284;22363;-86
2024/01/15 00:29:29;;;;;;;11.20;8.10;;;;;;;0.85;91.20;98147.73;109881;1280;22201;-87
2024/01/15 00:32:01;;;;;;;11.10;8.50;;;;;;;0.86;91.25;98135.77;109575;1279;22356;-89
2024/01/15 00:34:32;;;;;;;10.80;8.50;;;;;;;0.85;91.16;98128.31;109340;1288;22266;-87
2024/01/15 00:36:59;;;;;;;9.40;8.10;;;;;;;0.84;90.93;98123.81;108993;1290;22181;-87
2024/01/15 00:39:27;;;;;;;8.70;7.70;;;;;;;0.85;91.21;98123.80;109208;1294;22193;-87
2024/01/15 00:41:57;;;;;;;10.60;8.20;;;;;;;0.91;91.26;98121.34;109173;1294;22418;-84
2024/01/15 00:44:24;;;;;;;11.90;8.30;;;;;;;0.94;91.19;98117.68;108976;1294;22191;-85
2024/01/15 00:46:52;;;;;;;9.30;7.80;;;;;;;0.97;91.01;98112.29;109260;1291;22973;-86
2024/01/15 00:49:19;;;;;;;11.40;7.80;;;;;;;1.02;90.84;98110.02;109316;1290;22195;-85
2024/01/15 00:51:47;;;;;;;9.80;8.80;;;;;;;1.00;90.06;98101.70;109563;1284;22414;-83
2024/01/15 00:54:15;;;;;;;12.00;9.40;;;;;;;0.91;89.86;98103.84;109953;1279;22271;-86
2024/01/15 00:56:42;;;;;;;11.80;8.40;;;;;;;0.87;90.13;98097.98;109919;1284;22118;-87
2024/01/15 00:59:14;;;;;;;9.60;7.90;;;;;;;0.85;90.35;98094.70;109888;1283;22288;-87
2024/01/15 01:01:43;;;;;;;8.50;7.50;;;;;;;0.85;90.57;98093.83;110031;1280;23058;-88
2024/01/15 01:04:11;;;;;;;10.30;8.30;;;;;;;0.90;90.79;98095.38;109926;1281;22233;-88
2024/01/15 01:06:40;;;;;;;9.50;8.10;;;;;;;0.89;90.79;98092.25;109980;1283;23052;-88
2024/01/15 01:09:08;;;;;;;9.50;8.50;;;;;;;0.89;91.05;98094.86;109608;1291;22854;-88
2024/01/15 01:11:37;;;;;;;9.80;8.00;;;;;;;0.89;91.01;98088.43;109512;1291;22179;-86
2024/01/15 01:14:07;;;;;;;10.10;8.40;;;;;;;0.85;90.87;98084.64;109563;1289;22186;-85
2024/01/15 01:16:38;;;;;;;8.80;7.90;;;;;;;0.83;90.97;98081.37;109180;1295;22161;-87
2024/01/15 01:19:07;;;;;;;10.70;9.20;;;;;;;0.76;90.94;98074.48;109068;1289;23135;-85
2024/01/15 01:21:35;;;;;;;10.30;8.10;;;;;;;0.72;91.49;98071.22;109049;1287;22241;-87
2024/01/15 01:24:02;;;;;;;8.50;7.60;;;;;;;0.70;91.74;98074.17;109088;1289;23056;-87
2024/01/15 01:26:30;;;;;;;9.10;7.80;;;;;;;0.73;91.90;98076.94;109210;1289;22196;-88
2024/01/15 01:28:57;;;;;;;10.80;8.60;;;;;;;0.69;91.85;98075.23;109799;1285;22168;-88
2024/01/15 01:31:25;;;;;;;8.10;7.20;;;;;;;0.72;92.36;98070.52;109922;1285;22155;-87
2024/01/15 01:33:53;;;;;;;9.00;7.70;;;;;;;0.75;92.27;98070.52;110002;1280;22240;-88
2024/01/15 01:36:22;;;;;;;10.50;8.80;;;;;;;0.77;92.05;98060.45;110023;1280;22885;-87
2024/01/15 01:38:49;;;;;;;11.10;8.30;;;;;;;0.74;91.99;98061.50;110059;1275;22365;-88
2024/01/15 01:41:16;;;;;;;8.90;7.70;;;;;;;0.74;92.24;98056.30;110062;1276;22321;-88
2024/01/15 01:43:44;;;;;;;11.00;8.20;;;;;;;0.73;92.02;98050.60;110149;1279;22157;-84
2024/01/15 01:46:14;;;;;;;10.60;9.40;;;;;;;0.67;91.89;98050.64;110288;1280;22177;-87
2024/01/15 01:48:42;;;;;;;10.30;8.60;;;;;;;0.65;92.26;98043.21;110049;1279;23056;-87
2024/01/15 01:51:11;;;;;;;11.30;9.10;;;;;;;0.62;92.26;98038.02;110121;1279;22119;-89
2024/01/15 01:53:38;;;;;;;11.60;9.40;;;;;;;0.59;92.35;98029.73;110092;1280;23201;-88
2024/01/15 01:56:06;;;;;;;9.90;8.60;;;;;;;0.56;92.52;98030.27;109881;1285;22239;-89
2024/01/15 01:58:33;;;;;;;10.50;9.40;;;;;;;0.60;92.86;98032.31;109788;1285;22931;-88
2024/01/15 02:01:02;;;;;;;11.50;9.30;;;;;;;0.58;92.46;98030.77;109722;1285;22179;-87
2024/01/15 02:03:30;;;;;;;11.10;9.40;;;;;;;0.59;92.84;98029.03;109841;1284;22164;-90
2024/01/15 02:05:59;;;;;;;10.10;8.90;;;;;;;0.64;92.87;98027.27;109860;1285;22222;-89
2024/01/15 02:08:28;;;;;;;11.50;9.60;;;;;;;0.65;92.37;98023.46;109838;1284;22339;-88
2024/01/15 02:10:55;;;;;;;11.10;9.80;;;;;;;0.65;92.24;98026.76;109491;1290;22736;-88
2024/01/15 02:13:22;;;;;;;11.90;9.30;;;;;;;0.65;92.31;98017.92;109622;1287;22192;-88
2024/01/15 02:15:49;;;;;;;10.60;8.60;;;;;;;0.67;92.28;98019.29;109202;1295;22396;-88
2024/01/15 02:18:17;;;;;;;12.00;10.20;;;;;;;0.69;92.18;98014.41;109379;1294;22040;-89
2024/01/15 02:20:45;;;;;;;10.40;9.30;;;;;;;0.70;92.01;98003.33;108714;1297;22037;-88
2024/01/15 02:23:15;;;;;;;10.60;9.10;;;;;;;0.73;92.04;97999.65;108857;1295;22174;-88
2024/01/15 02:26:01;;;;;;;11.40;10.20;;;;;;;0.77;91.86;97995.63;108680;1297;22172;-89
2024/01/15 02:28:28;;;;;;;12.00;10.20;;;;;;;0.76;91.39;97999.64;108719;1292;22163;-87
2024/01/15 02:30:56;;;;;;;11.50;9.90;;;;;;;0.77;91.57;97993.21;109251;1292;22179;-86
2024/01/15 02:33:23;;;;;;;10.70;9.40;;;;;;;0.77;91.34;97984.56;109241;1286;22169;-87
2024/01/15 02:35:53;;;;;;;12.10;10.20;;;;;;;0.81;91.43;97984.36;109723;1287;22167;-88
2024/01/15 02:38:20;;;;;;;12.80;10.70;;;;;;;0.80;91.01;97980.20;109680;1287;22167;-87
2024/01/15 02:40:49;;;;;;;12.60;10.50;;;;;;;0.80;91.06;97979.16;109722;1287;22617;-87
2024/01/15 02:43:18;;;;;;;13.10;10.50;;;;;;;0.77;90.81;97972.26;109638;1286;22883;-87
2024/01/15 02:45:46;;;;;;;11.70;10.10;;;;;;;0.78;90.98;97970.85;109777;1280;22128;-86
2024/01/15 02:48:14;;;;;;;11.60;10.40;;;;;;;0.79;90.67;97966.86;110011;1280;22211;-89
2024/01/15 02:50:42;;;;;;;12.50;11.20;;;;;;;0.77;90.60;97963.41;110090;1280;22104;-88
2024/01/15 02:53:09;;;;;;;12.70;11.30;;;;;;;0.74;90.71;97958.94;110027;1278;22882;-86
2024/01/15 02:55:36;;;;;;;11.60;10.30;;;;;;;0.71;90.53;97957.23;110000;1279;22131;-88
2024/01/15 02:58:03;;;;;;;13.10;11.20;;;;;;;0.71;90.80;97950.65;110036;1280;22094;-88
2024/01/15 03:00:34;;;;;;;10.80;9.60;;;;;;;0.74;90.71;97945.08;110017;1280;22194;-87
2024/01/15 03:03:02;;;;;;;11.70;10.40;;;;;;;0.75;90.64;97937.96;110092;1279;22170;-87
2024/01/15 03:05:29;;;;;;;11.60;10.10;;;;;;;0.74;90.74;97932.95;109975;1280;22247;-87
2024/01/15 03:07:56;;;;;;;13.90;11.40;;;;;;;0.73;90.52;97924.14;110080;1277;22507;-87
2024/01/15 03:10:24;;;;;;;12.10;10.30;;;;;;;0.73;90.56;97920.83;110104;1275;22128;-89
2024/01/15 03:12:51;;;;;;;11.00;9.90;;;;;;;0.77;90.70;97919.05;109756;1285;22180;-90
2024/01/15 03:15:18;;;;;;;13.70;10.80;;;;;;;0.76;90.80;97917.52;109871;1279;22223;-88
2024/01/15 03:17:47;;;;;;;12.90;10.10;;;;;;;0.73;90.76;97917.02;109601;1289;22165;-89
2024/01/15 03:20:15;;;;;;;13.60;11.00;;;;;;;0.67;90.82;97911.89;109733;1285;22179;-88
2024/01/15 03:22:42;;;;;;;12.70;10.30;;;;;;;0.62;91.10;97914.52;109719;1286;22250;-89
2024/01/15 03:25:09;;;;;;;12.80;10.90;;;;;;;0.59;91.32;97911.42;109794;1283;22901;-87
2024/01/15 03:27:36;;;;;;;12.90;11.20;;;;;;;0.55;91.57;97907.48;109837;1286;22963;-89
2024/01/15 03:30:04;;;;;;;13.80;11.00;;;;;;;0.53;91.76;97899.52;109316;1287;22283;-88
2024/01/15 03:32:32;;;;;;;11.90;10.50;;;;;;;0.52;91.86;97901.61;109604;1292;22180;-88
2024/01/15 03:35:00;;;;;;;13.50;11.50;;;;;;;0.52;91.98;97899.54;109392;1288;22256;-89
2024/01/15 03:37:27;;;;;;;12.60;10.50;;;;;;;0.48;92.20;97895.93;109565;1283;23150;-89
2024/01/15 03:39:54;;;;;;;12.80;10.70;;;;;;;0.46;92.39;97891.80;109540;1287;22995;-90
2024/01/15 03:42:23;;;;;;;12.00;10.60;;;;;;;0.44;92.29;97889.91;109714;1287;22154;-89
2024/01/15 03:44:52;;;;;;;11.30;10.10;;;;;;;0.43;92.37;97888.54;109744;1287;22914;-87
2024/01/15 03:47:19;;;;;;;11.50;9.60;;;;;;;0.45;92.38;97880.72;109806;1281;22233;-91
2024/01/15 03:49:46;;;;;;;13.70;10.90;;;;;;;0.45;92.37;97877.11;109760;1287;22143;-90
2024/01/15 03:52:14;;;;;;;11.50;10.30;;;;;;;0.43;92.36;97872.08;109737;1286;22254;-90
2024/01/15 03:54:41;;;;;;;13.90;11.20;;;;;;;0.46;92.29;97867.38;109330;1291;22284;-88
2024/01/15 03:57:09;;;;;;;13.70;11.10;;;;;;;0.45;92.00;97865.30;109204;1291;23087;-89
2024/01/15 03:59:37;;;;;;;12.90;11.60;;;;;;;0.43;91.93;97867.77;109447;1291;22346;-89
2024/01/15 04:02:06;;;;;;;11.80;10.30;;;;;;;0.44;92.05;97867.05;109322;1290;22946;-86
2024/01/15 04:04:33;;;;;;;14.20;10.90;;;;;;;0.44;92.18;97862.89;109432;1287;22152;-86
2024/01/15 04:07:01;;;;;;;12.70;10.70;;;;;;;0.48;92.26;97851.59;109672;1280;22287;-88
2024/01/15 04:09:30;;;;;;;11.90;10.40;;;;;;;0.49;91.94;97853.50;110062;1280;22262;-87
2024/01/15 04:11:59;;;;;;;14.90;10.50;;;;;;;0.46;91.84;97852.48;110077;1275;23519;-86
2024/01/15 04:14:26;;;;;;;14.90;10.80;;;;;;;0.44;91.87;97844.54;110293;1277;22220;-88
2024/01/15 04:16:55;;;;;;;13.00;10.20;;;;;;;0.41;91.75;97841.80;110271;1272;22396;-88
2024/01/15 04:19:23;;;;;;;11.90;10.60;;;;;;;0.43;91.92;97836.94;110276;1272;22128;-88
2024/01/15 04:21:51;;;;;;;11.00;9.20;;;;;;;0.50;92.34;97829.41;110468;1276;22391;-88
2024/01/15 04:24:18;;;;;;;14.80;10.30;;;;;;;0.56;91.96;97816.54;110361;1273;22210;-88
2024/01/15 04:26:49;;;;;;;11.30;10.00;;;;;;;0.57;91.42;97809.77;110280;1276;23168;-89
2024/01/15 04:29:16;;;;;;;10.60;9.50;;;;;;;0.60;91.54;97808.52;110226;1275;22229;-88
2024/01/15 04:31:43;;;;;;;11.30;9.60;;;;;;;0.65;91.41;97805.20;109860;1281;22369;-87
2024/01/15 04:34:11;;;;;;;12.10;10.80;;;;;;;0.67;90.97;97795.98;109684;1286;22166;-88
2024/01/15 04:36:41;;;;;;;10.70;9.20;;;;;;;0.64;90.82;97792.73;109264;1293;22227;-86
2024/01/15 04:39:08;;;;;;;12.30;9.50;;;;;;;0.65;90.57;97788.39;109231;1293;22430;-87
2024/01/15 04:41:36;;;;;;;10.10;8.90;;;;;;;0.66;90.47;97781.62;109327;1293;22191;-87
2024/01/15 04:44:04;;;;;;;11.40;10.00;;;;;;;0.67;90.28;97786.13;109302;1292;22427;-89
2024/01/15 04:46:32;;;;;;;10.70;9.40;;;;;;;0.68;90.22;97780.05;109130;1286;22186;-87
2024/01/15 04:49:02;;;;;;;10.90;9.10;;;;;;;0.69;90.12;97776.90;109019;1287;22242;-88
2024/01/15 04:51:30;;;;;;;12.30;8.80;;;;;;;0.68;89.30;97780.56;109143;1293;22181;-86
2024/01/15 04:53:58;;;;;;;10.10;8.90;;;;;;;0.59;88.99;97776.50;108649;1292;22233;-86
2024/01/15 04:56:29;;;;;;;10.40;9.20;;;;;;;0.55;89.12;97779.66;109214;1292;22213;-87
2024/01/15 04:58:57;;;;;;;9.40;8.50;;;;;;;0.55;89.19;97771.70;109596;1283;22188;-90
2024/01/15 05:01:34;;;;;;;9.60;8.60;;;;;;;0.56;89.28;97777.05;109599;1288;22017;-90
2024/01/15 05:04:03;;;;;;;11.40;9.60;;;;;;;0.56;88.97;97773.41;109537;1288;22162;-89
2024/01/15 05:06:31;;;;;;;11.00;9.20;;;;;;;0.54;89.10;97773.09;109547;1289;22304;-89
2024/01/15 05:09:01;;;;;;;10.40;8.40;;;;;;;0.58;89.20;97770.61;109662;1283;22188;-89
2024/01/15 05:11:30;;;;;;;10.80;9.60;;;;;;;0.59;88.85;97768.52;109913;1277;22131;-90
2024/01/15 05:14:17;;;;;;;10.20;8.90;;;;;;;0.56;88.96;97774.27;109955;1281;22126;-90
2024/01/15 05:16:51;;;;;;;10.80;8.70;;;;;;;0.59;89.16;97765.59;109611;1286;22855;-89
2024/01/15 05:19:19;;;;;;;11.50;8.40;;;;;;;0.60;88.85;97761.41;109837;1278;22191;-89
2024/01/15 05:21:47;;;;;;;9.50;8.50;;;;;;;0.63;88.99;97759.81;109719;1284;22966;-90
2024/01/15 05:24:16;;;;;;;10.30;9.20;;;;;;;0.65;88.77;97756.52;109922;1285;22836;-87
2024/01/15 05:26:43;;;;;;;9.80;8.80;;;;;;;0.66;88.66;97752.70;109928;1286;22234;-89
2024/01/15 05:29:11;;;;;;;10.00;8.70;;;;;;;0.63;88.57;97748.22;109935;1288;22203;-87
2024/01/15 05:31:38;;;;;;;9.50;8.40;;;;;;;0.66;88.64;97753.56;109981;1284;22305;-88
2024/01/15 05:34:05;;;;;;;11.20;8.90;;;;;;;0.67;88.50;97753.73;109619;1289;22173;-84
2024/01/15 05:36:32;;;;;;;9.20;8.20;;;;;;;0.67;88.65;97756.15;109450;1282;23080;-86
2024/01/15 05:39:01;;;;;;;9.40;8.40;;;;;;;0.66;88.74;97761.88;109647;1287;22285;-87
2024/01/15 05:41:28;;;;;;;11.60;9.00;;;;;;;0.68;88.54;97754.92;109291;1294;22187;-88
2024/01/15 05:43:56;;;;;;;10.80;9.50;;;;;;;0.61;87.92;97753.44;108947;1294;22183;-87
2024/01/15 05:46:24;;;;;;;11.50;9.30;;;;;;;0.58;88.28;97747.41;108192;1301;22325;-89
2024/01/15 05:48:51;;;;;;;10.30;9.10;;;;;;;0.53;88.02;97751.27;108238;1301;22223;-88
2024/01/15 05:51:19;;;;;;;10.20;8.70;;;;;;;0.53;88.42;97745.91;108296;1301;22230;-87
2024/01/15 05:53:46;;;;;;;9.30;8.40;;;;;;;0.56;88.38;97743.80;107543;1307;22192;-86
2024/01/15 05:56:17;;;;;;;10.50;9.40;;;;;;;0.56;88.35;97747.61;107635;1307;22207;-86
2024/01/15 05:58:44;;;;;;;10.50;9.40;;;;;;;0.57;88.29;97743.60;107620;1300;22402;-87
2024/01/15 06:01:18;;;;;;;9.60;8.60;;;;;;;0.56;88.45;97734.45;108415;1300;22194;-86
2024/01/15 06:03:45;;;;;;;10.00;8.40;;;;;;;0.54;88.98;97736.55;108668;1295;22200;-84
2024/01/15 06:06:13;;;;;;;10.60;9.50;;;;;;;0.50;88.82;97736.59;109059;1294;22981;-85
2024/01/15 06:08:40;;;;;;;10.90;8.90;;;;;;;0.45;88.89;97738.38;108890;1294;22270;-84
2024/01/15 06:11:08;;;;;;;11.30;9.10;;;;;;;0.45;89.00;97740.62;108766;1288;22260;-84
2024/01/15 06:13:35;;;;;;;9.50;8.50;;;;;;;0.44;88.93;97730.59;109690;1288;22124;-84
2024/01/15 06:16:11;;;;;;;10.20;9.20;;;;;;;0.44;88.97;97724.02;109590;1288;22779;-84
2024/01/15 06:18:39;;;;;;;10.10;9.10;;;;;;;0.43;88.85;97721.95;109553;1287;22129;-83
2024/01/15 06:21:07;;;;;;;9.80;8.80;;;;;;;0.43;88.91;97725.77;109579;1288;22126;-90
2024/01/15 06:23:34;;;;;;;11.20;9.80;;;;;;;0.46;88.78;97728.14;109281;1291;22264;-84
2024/01/15 06:26:03;;;;;;;10.80;9.70;;;;;;;0.45;88.75;97725.39;109144;1291;22172;-83
2024/01/15 06:28:30;;;;;;;10.60;9.20;;;;;;;0.46;88.62;97716.20;109236;1290;22195;-88
2024/01/15 06:30:59;;;;;;;10.70;8.90;;;;;;;0.45;88.48;97718.98;109304;1292;23088;-88
2024/01/15 06:34:06;;;;;;;9.70;8.70;;;;;;;0.44;88.46;97717.27;109173;1292;22795;-88
2024/01/15 06:36:36;;;;;;;10.90;9.40;;;;;;;0.42;88.50;97720.91;109149;1291;22207;-86
2024/01/15 06:39:05;;;;;;;10.50;8.90;;;;;;;0.39;88.47;97715.75;109321;1292;22181;-88
2024/01/15 06:41:34;;;;;;;9.60;8.40;;;;;;;0.40;88.69;97708.82;109250;1288;22147;-87
2024/01/15 06:44:08;;;;;;;10.40;9.30;;;;;;;0.39;88.70;97708.14;109010;1292;22983;-86
2024/01/15 06:46:36;;;;;;;10.60;9.50;;;;;;;0.40;88.79;97702.23;109039;1293;22236;-86
2024/01/15 06:49:04;;;;;;;10.40;8.60;;;;;;;0.41;88.80;97706.90;109206;1290;22873;-87
2024/01/15 06:51:36;;;;;;;12.10;9.10;;;;;;;0.47;89.02;97707.52;109217;1293;22213;-88
2024/01/15 06:54:04;;;;;;;10.60;9.60;;;;;;;0.51;88.45;97706.27;108982;1286;22164;-87
2024/01/15 06:56:33;;;;;;;11.80;9.90;;;;;;;0.50;88.18;97703.17;108530;1298;22161;-87
2024/01/15 06:59:02;;;;;;;11.10;9.00;;;;;;;0.46;87.81;97710.48;108632;1298;22325;-87
2024/01/15 07:01:35;;;;;;;10.70;9.00;;;;;;;0.43;87.99;97717.27;108855;1293;22157;-86
2024/01/15 07:04:05;;;;;;;10.70;9.50;;;;;;;0.43;88.14;97716.75;109071;1297;22189;-87
2024/01/15 07:06:32;;;;;;;12.70;9.90;;;;;;;0.42;88.43;97721.09;108294;1302;22973;-86
2024/01/15 07:09:01;;;;;;;10.20;9.20;;;;;;;0.43;88.62;97720.56;108041;1304;22185;-87
2024/01/15 07:11:29;;;;;;;11.20;9.30;;;;;;;0.46;88.41;97711.36;108284;1304;22219;-88
2024/01/15 07:13:57;;;;;;;11.30;9.80;;;;;;;0.48;88.22;97709.77;108351;1299;22311;-87
2024/01/15 07:16:26;;;;;;;11.50;10.20;;;;;;;0.47;89.04;97713.77;108786;1299;23085;-87
2024/01/15 07:19:04;;;;;;;11.50;9.70;;;;;;;0.45;89.66;97710.33;108554;1299;23080;-87
2024/01/15 07:21:32;;;;;;;11.20;9.40;;;;;;;0.43;89.50;97705.49;107979;1301;22199;-88
2024/01/15 07:23:59;;;;;;;11.40;10.10;;;;;;;0.43;89.96;97710.52;107891;1300;22205;-87
2024/01/15 07:26:31;;;;;;;11.00;9.90;;;;;;;0.45;90.20;97719.50;108180;1297;22168;-87
2024/01/15 07:29:01;;;;;;;11.30;10.00;;;;;;;0.46;90.61;97710.13;108950;1297;22383;-88
2024/01/15 07:31:37;;;;;;;11.50;10.20;;;;;;;0.43;90.49;97713.29;108207;1302;22200;-87
2024/01/15 07:34:28;;;;;;;11.90;9.70;;;;;;;0.38;90.63;97711.95;108429;1302;22177;-88
2024/01/15 07:37:16;;;;;;;11.40;9.60;;;;;;;0.41;91.39;97716.09;108453;1302;22659;-89
2024/01/15 07:40:13;;;;;;;12.50;11.10;;;;;;;0.40;91.33;97712.63;109025;1297;22171;-87
2024/01/15 07:43:29;;;;;;;14.90;9.90;;;;;;;0.40;91.48;97718.86;109191;1297;22179;-88
2024/01/15 07:46:18;;;;;;;10.70;9.00;;;;;;;0.37;91.12;97715.78;108820;1298;22213;-92
2024/01/15 07:48:48;;;;;;;11.10;9.50;;;;;;;0.33;91.00;97720.16;108963;1294;22173;-84
2024/01/15 07:51:56;;;;;;;11.30;9.30;;;;;;;0.35;90.90;97720.13;109498;1293;22172;-92
2024/01/15 07:57:05;;;;;;;9.30;7.90;;;;;;;0.43;89.83;97720.39;106771;1312;545213;-87
2024/01/15 07:59:33;;;;;;;10.70;9.60;;;;;;;0.37;89.53;97723.23;106977;1285;22622;-88
2024/01/15 08:02:04;;;;;;;10.10;9.10;;;;;;;0.34;89.49;97722.23;106234;1287;22684;-87
2024/01/15 08:04:32;;;;;;;10.00;8.90;;;;;;;0.25;91.48;97715.20;106361;1287;25420;-87
2024/01/15 08:07:00;;;;;;;9.00;8.10;;;;;;;0.21;92.58;97725.63;106677;1281;22573;-87
2024/01/15 08:09:38;;;;;;;9.60;8.60;;;;;;;0.21;92.68;97724.41;109863;1278;287014;-87
2024/01/15 08:12:09;;;;;;;9.50;8.50;;;;;;;0.18;92.48;97721.52;110125;1278;22148;-88
2024/01/15 08:14:37;;;;;;;9.80;8.60;;;;;;;0.17;92.65;97714.26;110107;1278;22998;-87
2024/01/15 08:17:04;;;;;;;9.60;8.60;;;;;;;0.15;92.41;97716.18;110386;1277;23019;-87
2024/01/15 08:19:33;;;;;;;10.10;9.00;;;;;;;0.15;92.50;97721.55;110157;1277;22827;-88
2024/01/15 08:22:05;;;;;;;11.20;9.10;;;;;;;0.19;92.51;97718.05;110384;1278;22294;-87
2024/01/15 08:24:32;;;;;;;8.80;7.90;;;;;;;0.20;92.12;97719.77;110374;1277;22499;-86
2024/01/15 08:27:00;;;;;;;8.40;7.50;;;;;;;0.23;91.95;97723.20;110155;1278;22300;-87
2024/01/15 08:29:28;;;;;;;10.20;8.90;;;;;;;0.29;91.74;97710.66;110275;1278;22413;-87
2024/01/15 08:31:56;;;;;;;9.10;8.20;;;;;;;0.33;91.15;97721.70;110279;1276;22594;-86
2024/01/15 08:34:24;;;;;;;8.50;7.60;;;;;;;0.37;90.76;97721.49;110219;1276;22104;-87
2024/01/15 08:36:53;;;;;;;9.10;8.20;;;;;;;0.42;90.21;97721.27;110271;1276;22321;-88
2024/01/15 08:39:21;;;;;;;9.10;7.30;;;;;;;0.45;89.58;97724.17;110539;1276;22286;-89
2024/01/15 08:41:49;;;;;;;9.00;8.10;;;;;;;0.52;89.48;97722.36;110433;1276;22113;-87
2024/01/15 08:44:17;;;;;;;8.30;6.80;;;;;;;0.57;89.25;97727.85;110515;1276;22158;-86
2024/01/15 08:46:44;;;;;;;7.80;7.00;;;;;;;0.57;88.43;97724.90;110419;1274;22938;-86
2024/01/15 08:49:11;;;;;;;7.70;6.20;;;;;;;0.57;88.25;97719.70;110433;1276;22128;-87
2024/01/15 08:51:39;;;;;;;8.10;7.30;;;;;;;0.57;87.58;97730.45;110407;1276;22894;-87
2024/01/15 08:54:08;;;;;;;9.20;7.20;;;;;;;0.57;87.53;97735.98;110402;1276;22197;-85
2024/01/15 08:56:35;;;;;;;8.20;7.10;;;;;;;0.54;87.83;97726.85;109902;1282;22232;-86
2024/01/15 08:59:02;;;;;;;7.00;6.40;;;;;;;0.53;88.72;97739.84;109548;1285;22963;-86
2024/01/15 09:01:32;;;;;;;7.10;6.40;;;;;;;0.52;89.04;97739.16;109563;1288;22966;-86
2024/01/15 09:03:59;;;;;;;9.20;8.20;;;;;;;0.48;89.09;97746.13;109721;1280;22176;-87
2024/01/15 09:06:27;;;;;;;8.40;7.40;;;;;;;0.43;89.51;97749.30;109679;1288;22493;-85
2024/01/15 09:08:54;;;;;;;8.30;7.40;;;;;;;0.44;89.99;97748.77;109273;1291;22186;-86
2024/01/15 09:11:21;;;;;;;9.40;7.70;;;;;;;0.47;89.87;97754.30;109304;1294;22222;-86
2024/01/15 09:13:51;;;;;;;7.40;6.70;;;;;;;0.51;89.61;97735.72;109330;1294;22324;-85
2024/01/15 09:16:19;;;;;;;9.20;7.70;;;;;;;0.47;89.42;97741.13;108863;1296;22492;-86
2024/01/15 09:21:10;;;;;;;7.90;7.10;;;;;;;0.52;89.64;97738.98;106700;1308;558226;-84
2024/01/15 09:23:38;;;;;;;8.80;7.50;;;;;;;0.68;88.92;97729.80;109361;1282;25431;-84
2024/01/15 09:26:04;;;;;;;7.60;6.50;;;;;;;0.86;88.25;97732.18;109015;1289;22568;-83
2024/01/15 09:28:32;;;;;;;9.30;6.40;;;;;;;1.02;87.86;97729.36;109150;1283;22311;-84
2024/01/15 09:37:18;;;;;;;8.80;7.00;;;;;;;1.00;84.83;97709.63;105827;1304;545321;-84
2024/01/15 09:40:12;;;;;;;8.50;7.00;;;;;;;0.94;84.99;97732.44;106422;1287;22537;-86
2024/01/15 09:42:41;;;;;;;7.30;6.60;;;;;;;0.96;84.79;97726.68;105966;1293;22659;-82
2024/01/15 09:45:09;;;;;;;7.70;6.40;;;;;;;0.99;84.54;97720.92;105323;1300;25315;-84
2024/01/15 09:47:37;;;;;;;8.90;6.20;;;;;;;1.06;84.42;97721.52;104651;1304;22573;-86
2024/01/15 09:50:11;;;;;;;8.80;6.50;;;;;;;1.14;84.17;97710.16;104440;1302;294479;-84
2024/01/15 09:59:06;;;;;;;6.20;5.00;;;;;;;1.11;82.13;97716.42;104413;1312;545641;-83
2024/01/15 10:01:39;;;;;;;8.10;5.20;;;;;;;1.03;81.98;97716.71;107089;1286;23409;-84
2024/01/15 10:04:06;;;;;;;6.70;5.60;;;;;;;1.03;81.87;97715.50;107552;1288;22505;-83
2024/01/15 10:06:36;;;;;;;8.90;6.20;;;;;;;1.03;80.61;97714.45;107797;1277;23186;-83
2024/01/15 10:09:24;;;;;;;7.80;6.00;;;;;;;1.01;80.28;97711.19;104305;1311;545701;-82
2024/01/15 10:11:51;;;;;;;8.30;6.20;;;;;;;1.02;80.88;97706.15;106857;1287;23786;-86
2024/01/15 10:14:18;;;;;;;8.00;5.10;;;;;;;1.05;80.64;97704.56;107214;1292;25675;-86
2024/01/15 10:16:45;;;;;;;6.00;4.90;;;;;;;1.05;80.19;97703.32;106289;1292;22551;-85
2024/01/15 10:19:15;;;;;;;7.40;5.80;;;;;;;1.05;80.36;97706.11;105800;1292;22830;-83
2024/01/15 10:21:42;;;;;;;5.90;4.80;;;;;;;1.07;80.08;97710.77;106224;1290;22643;-84
2024/01/15 10:24:09;;;;;;;6.90;5.70;;;;;;;1.07;79.07;97714.05;106145;1294;261538;-83
2024/01/15 10:26:36;;;;;;;8.40;5.80;;;;;;;1.04;78.81;97713.23;109371;1294;22286;-86
2024/01/15 10:29:03;;;;;;;7.80;5.70;;;;;;;1.03;78.91;97708.39;109060;1293;22183;-84
2024/01/15 10:31:31;;;;;;;9.30;5.40;;;;;;;1.04;79.05;97710.98;109057;1289;22180;-84
2024/01/15 10:34:12;;;;;;;8.40;6.30;;;;;;;1.04;79.34;97714.78;109629;1288;23227;-84
2024/01/15 10:36:40;;;;;;;8.00;6.00;;;;;;;0.98;80.31;97708.98;109618;1288;22258;-85
2024/01/15 10:39:08;;;;;;;7.30;5.80;;;;;;;0.90;79.91;97695.91;109622;1288;22935;-84
2024/01/15 10:41:36;;;;;;;6.90;5.60;;;;;;;0.94;80.52;97703.14;109732;1284;22929;-86
2024/01/15 10:44:04;;;;;;;9.20;6.60;;;;;;;0.96;79.70;97697.23;109455;1290;22183;-84
2024/01/15 10:46:32;;;;;;;7.90;6.60;;;;;;;0.91;79.64;97705.59;109120;1295;22180;-85
2024/01/15 10:49:00;;;;;;;9.30;6.60;;;;;;;0.93;80.19;97706.27;108885;1295;22215;-84
2024/01/15 10:51:28;;;;;;;7.90;6.00;;;;;;;0.97;80.02;97702.75;108885;1296;22168;-85
2024/01/15 10:53:57;;;;;;;8.60;7.10;;;;;;;1.00;79.70;97708.94;109091;1295;22200;-84
2024/01/15 10:56:25;;;;;;;9.80;6.60;;;;;;;1.03;79.84;97703.02;109360;1295;22171;-84
2024/01/15 10:58:54;;;;;;;7.90;6.60;;;;;;;0.99;79.73;97698.92;108464;1299;22203;-84
2024/01/15 11:01:26;;;;;;;9.40;6.40;;;;;;;1.00;80.23;97709.64;108478;1295;22199;-84
2024/01/15 11:03:57;;;;;;;8.10;6.40;;;;;;;1.06;80.40;97711.98;108898;1295;22173;-83
2024/01/15 11:06:25;;;;;;;7.50;6.60;;;;;;;1.01;79.69;97706.86;108900;1295;23147;-85
2024/01/15 11:08:52;;;;;;;8.10;6.90;;;;;;;0.98;80.37;97699.79;108888;1293;22179;-83
2024/01/15 11:11:21;;;;;;;6.90;5.80;;;;;;;1.01;80.83;97698.02;109153;1290;22335;-84
2024/01/15 11:13:51;;;;;;;7.80;6.50;;;;;;;0.98;80.60;97711.92;109312;1290;22338;-83
2024/01/15 11:16:19;;;;;;;11.10;6.60;;;;;;;0.99;80.76;97702.55;109308;1290;22252;-85
2024/01/15 11:19:18;;;;;;;8.40;6.50;;;;;;;0.99;80.41;97697.70;109252;1290;22157;-84
2024/01/15 11:21:46;;;;;;;8.20;6.40;;;;;;;0.92;80.36;97692.77;108874;1294;22255;-84
2024/01/15 11:24:42;;;;;;;7.20;5.10;;;;;;;0.91;80.55;97693.48;109636;1291;22336;-83
2024/01/15 11:27:10;;;;;;;7.90;6.00;;;;;;;0.86;80.64;97697.52;109370;1291;22120;-84
2024/01/15 11:29:37;;;;;;;9.90;7.40;;;;;;;0.90;80.95;97691.59;109488;1289;22229;-87
2024/01/15 11:32:07;;;;;;;8.90;7.00;;;;;;;0.92;80.60;97693.81;109397;1291;22383;-84
2024/01/15 11:34:57;;;;;;;9.50;6.90;;;;;;;0.89;80.93;97685.02;109453;1288;22241;-84
2024/01/15 11:37:27;;;;;;;9.70;6.70;;;;;;;0.87;80.78;97679.50;109448;1291;22193;-83
2024/01/15 11:39:56;;;;;;;7.70;6.30;;;;;;;0.84;81.18;97685.06;109480;1291;22249;-83
2024/01/15 11:42:23;;;;;;;10.00;7.30;;;;;;;0.83;81.59;97686.30;109570;1291;22841;-84
2024/01/15 11:44:52;;;;;;;8.50;6.50;;;;;;;0.86;81.30;97678.29;109429;1291;22182;-84
2024/01/15 11:47:52;;;;;;;7.60;6.70;;;;;;;0.90;80.28;97679.81;109385;1291;22181;-84
2024/01/15 11:50:21;;;;;;;8.40;6.20;;;;;;;0.87;80.72;97689.02;109395;1291;22891;-83
2024/01/15 11:52:59;;;;;;;8.00;6.60;;;;;;;0.85;80.62;97671.71;109923;1282;22293;-83
2024/01/15 11:55:35;;;;;;;7.70;6.00;;;;;;;0.85;80.85;97682.29;109959;1279;22261;-84
2024/01/15 11:58:11;;;;;;;8.80;6.30;;;;;;;0.91;80.57;97692.44;109999;1276;23365;-83